Terminal Aerodrome Forecast
Issued by NWS

Home | Current Version | Previous Version | Text Only | Print | Product List | Glossary Off
Versions: 1 2 3 4 5 6 7 8 9 10 11 12 13 14 15 16 17 18 19

000
FTUS42 KMHX 200500
TAFOAJ
TAF
KOAJ 200540Z 2006/2106 34002KT 4SM BR SCT007 SCT040
     FM200900 36002KT 3SM BR BKN007
     FM201300 01005KT P6SM SCT040
     FM201800 VRB04KT P6SM VCTS BKN040CB
     FM210000 VRB02KT P6SM SCT200
      AMD LTD TO CLD VIS AND WIND=

USA.gov is the U.S. government's official web portal to all federal, state and local government web resources and services.